Time;durP1;ratioP1;P1;durP2;ratioP2;P2;SDS_P1;SDS_P2;PMS_P1;PMS_P2;Temp;Humidity;BMP_temperature;BMP_pressure;BME280_temperature;BME280_humidity;BME280_pressure;Samples;Min_cycle;Max_cycle;Signal;HPM_P1;HPM_P2
2022/07/23 00:00:01;;;;;;;6.13;3.43;;;;;;;17.32;95.71;101228.56;5095642;28;20468;-73
2022/07/23 00:02:28;;;;;;;8.43;2.90;;;;;;;17.31;95.80;101224.19;5095559;28;20480;-73
2022/07/23 00:04:54;;;;;;;4.97;2.83;;;;;;;17.35;95.40;101222.41;5085750;28;20549;-73
2022/07/23 00:07:22;;;;;;;9.83;3.63;;;;;;;17.36;95.51;101211.13;5084675;28;20548;-73
2022/07/23 00:09:49;;;;;;;7.37;4.00;;;;;;;17.35;95.39;101209.53;5095341;28;20439;-73
2022/07/23 00:12:16;;;;;;;6.70;4.20;;;;;;;17.35;95.67;101204.06;5095211;28;20958;-72
2022/07/23 00:14:42;;;;;;;6.27;3.57;;;;;;;17.33;95.53;101202.78;5095488;28;20563;-73
2022/07/23 00:17:09;;;;;;;5.23;2.87;;;;;;;17.32;95.54;101206.66;5095104;28;20885;-72
2022/07/23 00:19:35;;;;;;;7.70;3.60;;;;;;;17.28;95.95;101201.03;5094940;28;20456;-73
2022/07/23 00:22:02;;;;;;;8.00;3.60;;;;;;;17.33;95.50;101194.56;5095040;28;20445;-73
2022/07/23 00:24:30;;;;;;;9.83;4.17;;;;;;;17.34;95.45;101194.22;5094883;28;20997;-73
2022/07/23 00:26:57;;;;;;;6.93;3.40;;;;;;;17.28;95.66;101198.28;5074702;28;20994;-73
2022/07/23 00:29:23;;;;;;;7.47;3.57;;;;;;;17.31;96.01;101194.06;5074969;28;20472;-73
2022/07/23 00:31:50;;;;;;;8.80;4.30;;;;;;;17.34;95.76;101199.69;5074946;28;20531;-73
2022/07/23 00:34:17;;;;;;;8.27;3.90;;;;;;;17.32;95.60;101206.66;5075296;28;20576;-72
2022/07/23 00:36:43;;;;;;;6.27;3.77;;;;;;;17.30;95.68;101209.69;5094750;28;20443;-73
2022/07/23 00:39:10;;;;;;;6.03;3.43;;;;;;;17.30;95.60;101209.69;5094992;28;20484;-73
2022/07/23 00:41:38;;;;;;;10.30;3.67;;;;;;;17.27;95.79;101198.63;5094653;28;20891;-73
2022/07/23 00:44:15;;;;;;;5.93;3.30;;;;;;;17.24;95.96;101202.81;5094841;28;20548;-73
2022/07/23 00:46:46;;;;;;;4.93;3.00;;;;;;;17.29;95.21;101199.09;5094805;28;20807;-73
2022/07/23 00:49:13;;;;;;;6.13;3.27;;;;;;;17.28;95.19;101202.97;5094862;28;20433;-73
2022/07/23 00:51:39;;;;;;;7.67;2.90;;;;;;;17.20;95.49;101214.75;5094672;28;20527;-73
2022/07/23 00:54:06;;;;;;;6.63;3.57;;;;;;;17.17;95.54;101220.88;5091397;28;20574;-73
2022/07/23 00:56:33;;;;;;;7.37;3.33;;;;;;;17.18;95.95;101222.50;5093385;28;20834;-73
2022/07/23 00:59:02;;;;;;;13.17;4.27;;;;;;;17.12;95.36;101230.09;5094362;28;20455;-73
2022/07/23 01:01:29;;;;;;;7.37;3.47;;;;;;;17.00;96.15;101224.50;5093486;28;20461;-73
2022/07/23 01:03:55;;;;;;;8.50;3.13;;;;;;;16.95;96.48;101216.47;5093440;28;20539;-73
2022/07/23 01:06:22;;;;;;;7.30;3.50;;;;;;;16.93;96.59;101213.28;5093958;28;20539;-73
2022/07/23 01:08:49;;;;;;;7.43;3.40;;;;;;;16.92;96.36;101198.00;5093800;28;20468;-74
2022/07/23 01:11:15;;;;;;;6.80;3.13;;;;;;;16.92;97.00;101198.00;5093373;28;20462;-73
2022/07/23 01:13:43;;;;;;;6.43;3.33;;;;;;;16.95;96.64;101205.53;5093158;28;20575;-73
2022/07/23 01:16:11;;;;;;;5.77;3.13;;;;;;;16.93;96.19;101199.59;5094189;28;20515;-73
2022/07/23 01:18:37;;;;;;;6.13;2.93;;;;;;;16.87;96.14;101197.06;5093851;28;20795;-73
2022/07/23 01:21:04;;;;;;;8.67;3.70;;;;;;;16.81;96.74;101192.06;5092516;28;20456;-72
2022/07/23 01:23:32;;;;;;;6.07;3.17;;;;;;;16.81;96.79;101198.34;5092249;28;20463;-73
2022/07/23 01:25:59;;;;;;;5.10;2.67;;;;;;;16.81;96.36;101201.09;5093125;28;20559;-73
2022/07/23 01:28:25;;;;;;;4.67;2.83;;;;;;;16.77;93.63;101193.84;5092584;28;21020;-73
2022/07/23 01:30:52;;;;;;;5.03;3.33;;;;;;;16.67;93.26;101189.53;5093455;28;20543;-73
2022/07/23 01:33:18;;;;;;;6.93;3.93;;;;;;;16.64;93.21;101182.78;5093673;28;20530;-73
2022/07/23 01:35:45;;;;;;;5.77;3.63;;;;;;;16.61;92.43;101186.16;5092636;28;20566;-73
2022/07/23 01:38:12;;;;;;;5.20;2.53;;;;;;;16.59;94.45;101185.69;5092936;28;21028;-72
2022/07/23 01:40:40;;;;;;;5.00;3.20;;;;;;;16.63;95.75;101188.56;5093234;28;20488;-72
2022/07/23 01:43:06;;;;;;;6.30;3.53;;;;;;;16.65;96.47;101178.13;5092607;28;20535;-72
2022/07/23 01:45:33;;;;;;;8.00;4.07;;;;;;;16.65;96.27;101186.31;5092639;28;20555;-74
2022/07/23 01:47:59;;;;;;;7.43;3.63;;;;;;;16.68;96.81;101188.38;5092065;28;20543;-70
2022/07/23 01:50:26;;;;;;;9.00;4.00;;;;;;;16.70;95.90;101191.63;5093126;28;20551;-68
2022/07/23 01:52:53;;;;;;;7.73;3.40;;;;;;;16.72;96.84;101185.81;5092064;28;20539;-69
2022/07/23 01:55:19;;;;;;;8.80;4.83;;;;;;;16.76;96.56;101189.53;5092148;28;20567;-69
2022/07/23 01:57:47;;;;;;;7.07;4.07;;;;;;;16.76;96.66;101192.25;5092681;28;21026;-69
2022/07/23 02:00:15;;;;;;;8.07;3.50;;;;;;;16.76;96.76;101190.31;5092955;28;20540;-69
2022/07/23 02:02:41;;;;;;;6.37;3.93;;;;;;;16.77;96.65;101180.97;5092610;28;20456;-69
2022/07/23 02:05:09;;;;;;;6.10;3.20;;;;;;;16.83;96.95;101178.88;5091828;28;20468;-69
2022/07/23 02:07:35;;;;;;;5.97;3.40;;;;;;;16.85;96.62;101182.88;5093574;28;20467;-69
2022/07/23 02:10:02;;;;;;;6.73;3.80;;;;;;;16.81;96.25;101176.44;5091562;28;20525;-69
2022/07/23 02:12:29;;;;;;;7.90;4.50;;;;;;;16.79;95.97;101169.72;5091576;28;20464;-69
2022/07/23 02:14:57;;;;;;;5.60;2.83;;;;;;;16.69;95.97;101170.88;5091326;28;20899;-69
2022/07/23 02:17:23;;;;;;;6.80;3.70;;;;;;;16.67;96.67;101170.38;5093328;28;20505;-69
2022/07/23 02:19:50;;;;;;;4.83;2.80;;;;;;;16.50;96.86;101173.97;5091325;28;21040;-69
2022/07/23 02:22:17;;;;;;;7.03;3.90;;;;;;;16.48;97.13;101180.91;5093334;28;20535;-69
2022/07/23 02:24:43;;;;;;;10.47;4.00;;;;;;;16.51;97.71;101186.53;5089714;28;21070;-69
2022/07/23 02:27:10;;;;;;;7.00;3.17;;;;;;;16.55;96.72;101184.72;5093287;28;20821;-69
2022/07/23 02:29:36;;;;;;;6.57;3.23;;;;;;;16.54;97.64;101183.13;5091521;28;20547;-69
2022/07/23 02:32:05;;;;;;;6.67;3.40;;;;;;;16.56;96.83;101169.94;5095989;28;20495;-69
2022/07/23 02:34:31;;;;;;;7.83;3.40;;;;;;;16.51;96.90;101178.31;5096419;28;20498;-69
2022/07/23 02:36:58;;;;;;;4.63;3.10;;;;;;;16.51;96.78;101161.09;5095216;28;20611;-69
2022/07/23 02:39:25;;;;;;;6.70;3.83;;;;;;;16.50;95.85;101159.50;5096805;28;20523;-69
2022/07/23 02:41:51;;;;;;;12.90;4.37;;;;;;;16.51;96.88;101172.03;5095656;28;20547;-69
2022/07/23 02:44:18;;;;;;;7.27;4.20;;;;;;;16.58;95.67;101172.34;5096687;28;20582;-70
2022/07/23 02:46:44;;;;;;;5.97;3.47;;;;;;;16.56;92.05;101166.41;5095533;28;20543;-69
2022/07/23 02:49:12;;;;;;;8.00;3.80;;;;;;;16.56;93.00;101174.59;5095773;28;20547;-69
2022/07/23 02:51:39;;;;;;;5.43;2.73;;;;;;;16.54;93.62;101183.13;5096470;28;20491;-69
2022/07/23 02:54:06;;;;;;;6.20;3.10;;;;;;;16.60;94.81;101195.50;5095965;28;20480;-69
2022/07/23 02:56:33;;;;;;;5.07;2.77;;;;;;;16.61;94.95;101201.78;5096158;28;20480;-70
2022/07/23 02:58:59;;;;;;;7.47;3.00;;;;;;;16.67;94.44;101203.19;5095964;28;20664;-70
2022/07/23 03:01:26;;;;;;;7.70;3.30;;;;;;;16.69;94.89;101200.97;5095201;28;20551;-69
2022/07/23 03:03:52;;;;;;;4.13;2.60;;;;;;;16.72;94.53;101188.53;5095642;28;20894;-72
2022/07/23 03:06:20;;;;;;;3.83;2.33;;;;;;;16.74;94.39;101183.59;5095929;28;20842;-71
2022/07/23 03:08:47;;;;;;;6.90;3.40;;;;;;;16.77;93.91;101175.50;5095854;28;20488;-71
2022/07/23 03:11:14;;;;;;;4.53;2.53;;;;;;;16.78;94.04;101187.28;5095479;28;20460;-71
2022/07/23 03:13:41;;;;;;;6.50;2.70;;;;;;;16.77;93.97;101186.44;5094839;28;20488;-71
2022/07/23 03:16:08;;;;;;;3.80;2.00;;;;;;;16.82;94.13;101193.66;5095677;28;20927;-71
2022/07/23 03:18:35;;;;;;;4.53;2.50;;;;;;;16.82;93.96;101188.19;5092400;28;20550;-71
2022/07/23 03:21:02;;;;;;;5.10;2.93;;;;;;;16.79;93.58;101197.88;5095320;28;20547;-70
2022/07/23 03:23:30;;;;;;;6.33;2.63;;;;;;;16.82;93.41;101208.19;5095738;28;20484;-70
2022/07/23 03:25:56;;;;;;;8.33;3.23;;;;;;;16.82;92.77;101212.81;5095260;28;20531;-70
2022/07/23 03:28:23;;;;;;;5.90;2.63;;;;;;;16.82;93.29;101215.56;5094313;28;20542;-71
2022/07/23 03:30:49;;;;;;;5.40;3.17;;;;;;;16.87;92.64;101224.41;5095126;28;20492;-70
2022/07/23 03:33:17;;;;;;;5.23;2.63;;;;;;;16.81;92.20;101206.56;5095590;28;20543;-70
2022/07/23 03:35:44;;;;;;;5.47;3.10;;;;;;;16.84;92.45;101216.84;5078797;28;20909;-70
2022/07/23 03:38:11;;;;;;;6.13;2.77;;;;;;;16.91;93.06;101213.63;5094956;28;21019;-70
2022/07/23 03:40:39;;;;;;;7.43;2.80;;;;;;;16.98;92.47;101226.78;5095546;28;20547;-70
2022/07/23 03:43:06;;;;;;;5.33;2.90;;;;;;;16.98;92.49;101230.31;5093902;28;21017;-70
2022/07/23 03:45:33;;;;;;;6.10;2.40;;;;;;;17.01;91.75;101226.94;5093754;28;20503;-70
2022/07/23 03:48:00;;;;;;;4.23;2.50;;;;;;;17.10;91.81;101241.38;5095141;28;20460;-70
2022/07/23 03:50:27;;;;;;;6.30;3.33;;;;;;;17.12;91.78;101241.03;5095297;28;20456;-68
2022/07/23 03:52:53;;;;;;;5.53;2.20;;;;;;;17.13;91.05;101246.22;5095257;28;20902;-70
2022/07/23 03:55:20;;;;;;;5.73;2.20;;;;;;;17.19;90.21;101246.03;5094765;28;20992;-71
2022/07/23 03:57:48;;;;;;;5.20;2.50;;;;;;;17.21;90.11;101241.81;5094767;28;20621;-70
2022/07/23 04:00:15;;;;;;;4.47;2.13;;;;;;;17.26;89.69;101233.41;5094616;28;20523;-70
2022/07/23 04:02:42;;;;;;;6.93;2.00;;;;;;;17.28;90.33;101214.72;5095487;28;20857;-70
2022/07/23 04:05:09;;;;;;;9.67;2.53;;;;;;;17.27;90.96;101204.91;5094719;28;20474;-70
2022/07/23 04:07:35;;;;;;;9.83;2.73;;;;;;;17.33;91.45;101203.56;5094263;28;20463;-70
2022/07/23 04:10:02;;;;;;;4.70;2.57;;;;;;;17.42;91.64;101189.03;5094029;28;20545;-70
2022/07/23 04:12:29;;;;;;;7.40;2.53;;;;;;;17.43;93.29;101202.38;5095046;28;20491;-71
2022/07/23 04:14:57;;;;;;;3.70;2.10;;;;;;;17.31;95.99;101186.69;5094396;28;20990;-70
2022/07/23 04:17:23;;;;;;;4.40;2.23;;;;;;;17.22;96.74;101174.97;5092733;28;20507;-70
2022/07/23 04:19:50;;;;;;;3.80;1.90;;;;;;;17.14;98.18;101167.63;5093621;28;20499;-70
2022/07/23 04:22:16;;;;;;;3.33;1.70;;;;;;;17.12;100.00;101175.34;5094619;28;20496;-70
2022/07/23 04:24:43;;;;;;;3.20;2.00;;;;;;;17.11;100.00;101190.97;5093961;28;20908;-70
2022/07/23 04:27:10;;;;;;;5.40;2.23;;;;;;;17.06;100.00;101196.63;5093105;28;21032;-70
2022/07/23 04:29:36;;;;;;;6.23;2.50;;;;;;;16.96;100.00;101197.00;5094211;28;20457;-70
2022/07/23 04:32:05;;;;;;;3.20;1.47;;;;;;;16.86;100.00;101205.56;5094475;28;20495;-70
2022/07/23 04:34:32;;;;;;;4.00;1.83;;;;;;;16.79;100.00;101219.78;5094193;28;20508;-70
2022/07/23 04:36:58;;;;;;;4.43;2.40;;;;;;;16.76;100.00;101216.88;5094120;28;20487;-70
2022/07/23 04:39:25;;;;;;;3.90;1.93;;;;;;;16.74;100.00;101210.94;5093427;28;20468;-70
2022/07/23 04:41:51;;;;;;;4.00;1.80;;;;;;;16.84;100.00;101216.06;5093797;28;20831;-70
2022/07/23 04:44:18;;;;;;;9.10;2.27;;;;;;;16.83;100.00;101219.94;5094272;28;20475;-70
2022/07/23 04:46:45;;;;;;;3.77;1.60;;;;;;;16.83;100.00;101211.72;5093957;28;20547;-70
2022/07/23 04:49:13;;;;;;;4.17;2.17;;;;;;;16.75;99.51;101221.56;5092751;28;20492;-70
2022/07/23 04:51:39;;;;;;;5.03;2.40;;;;;;;16.75;100.00;101221.56;5093929;28;20909;-70
2022/07/23 04:54:06;;;;;;;5.20;2.50;;;;;;;16.80;100.00;101224.09;5093298;28;20551;-70
2022/07/23 04:56:32;;;;;;;5.33;2.80;;;;;;;16.80;100.00;101223.31;5093995;28;20563;-70
2022/07/23 04:58:59;;;;;;;6.00;2.67;;;;;;;16.78;100.00;101234.59;5093198;28;20492;-73
2022/07/23 05:01:26;;;;;;;5.93;2.20;;;;;;;16.77;100.00;101215.75;5093957;28;20546;-73
2022/07/23 05:03:52;;;;;;;4.30;2.27;;;;;;;16.75;100.00;101213.34;5093898;28;20504;-74
2022/07/23 05:06:20;;;;;;;7.73;3.10;;;;;;;16.71;100.00;101189.69;5093895;28;20540;-70
2022/07/23 05:08:47;;;;;;;3.60;1.90;;;;;;;16.68;100.00;101204.81;5092945;28;20497;-69
2022/07/23 05:11:13;;;;;;;4.00;2.27;;;;;;;16.70;100.00;101208.03;5093937;28;20539;-69
2022/07/23 05:13:40;;;;;;;4.23;2.30;;;;;;;16.75;100.00;101218.81;5093097;28;20464;-69
2022/07/23 05:16:07;;;;;;;4.57;2.60;;;;;;;16.81;100.00;101220.22;5093343;28;20567;-69
2022/07/23 05:18:33;;;;;;;5.17;2.80;;;;;;;16.84;100.00;101216.84;5106608;22;20580;-68
2022/07/23 05:21:00;;;;;;;5.60;2.83;;;;;;;16.85;100.00;101209.44;5073339;28;20555;-69
2022/07/23 05:23:28;;;;;;;4.30;2.10;;;;;;;16.85;100.00;101210.25;5073385;28;20552;-68
2022/07/23 05:25:55;;;;;;;4.13;2.43;;;;;;;16.88;100.00;101217.00;5072946;28;20543;-68
2022/07/23 05:28:21;;;;;;;4.23;2.17;;;;;;;16.89;100.00;101208.47;5073926;28;20549;-68
2022/07/23 05:30:48;;;;;;;4.23;2.27;;;;;;;16.90;100.00;101214.72;5072213;28;20544;-68
2022/07/23 05:33:14;;;;;;;10.30;3.10;;;;;;;16.88;100.00;101215.06;5073480;28;20945;-67
2022/07/23 05:35:41;;;;;;;4.23;1.73;;;;;;;16.87;100.00;101210.72;5073434;28;20481;-68
2022/07/23 05:38:08;;;;;;;4.00;2.10;;;;;;;16.90;100.00;101212.00;5073818;28;20496;-68
2022/07/23 05:40:36;;;;;;;4.10;1.97;;;;;;;16.93;100.00;101210.53;5073651;28;20608;-68
2022/07/23 05:43:02;;;;;;;5.20;2.13;;;;;;;17.02;100.00;101222.25;5072108;28;20464;-68
2022/07/23 05:45:29;;;;;;;3.23;1.50;;;;;;;16.99;100.00;101222.91;5073393;28;20476;-68
2022/07/23 05:47:56;;;;;;;9.70;2.40;;;;;;;16.97;100.00;101230.66;5067547;28;21027;-69
2022/07/23 05:50:22;;;;;;;5.17;1.73;;;;;;;16.97;100.00;101233.38;5053643;28;20830;-68
2022/07/23 05:52:49;;;;;;;5.77;2.23;;;;;;;16.97;100.00;101236.13;5053851;28;20990;-70
2022/07/23 05:55:15;;;;;;;3.13;1.50;;;;;;;16.94;100.00;101236.78;5072332;28;20564;-68
2022/07/23 05:57:44;;;;;;;4.67;2.13;;;;;;;16.98;100.00;101238.53;5073554;28;20493;-68
2022/07/23 06:00:12;;;;;;;4.63;2.37;;;;;;;16.97;100.00;101241.59;5070720;28;20457;-67
2022/07/23 06:02:39;;;;;;;3.47;1.77;;;;;;;16.94;100.00;101231.31;5072357;28;20532;-72
2022/07/23 06:05:08;;;;;;;7.93;2.30;;;;;;;16.97;100.00;101230.66;5071959;28;20532;-71
2022/07/23 06:07:36;;;;;;;5.40;2.20;;;;;;;16.97;100.00;101233.38;5073054;28;20556;-70
2022/07/23 06:10:02;;;;;;;6.50;2.13;;;;;;;16.89;100.00;101222.13;5073469;28;20540;-70
2022/07/23 06:12:29;;;;;;;7.13;1.73;;;;;;;16.90;100.00;101221.00;5072796;28;20527;-70
2022/07/23 06:14:57;;;;;;;4.77;1.70;;;;;;;16.87;100.00;101212.66;5071366;28;20887;-70
2022/07/23 06:17:24;;;;;;;3.87;1.80;;;;;;;16.79;100.00;101222.50;5071392;28;20550;-69
2022/07/23 06:19:50;;;;;;;5.93;2.33;;;;;;;16.86;100.00;101225.53;5071824;28;20542;-68
2022/07/23 06:22:17;;;;;;;4.60;1.80;;;;;;;16.86;100.00;101214.56;5072647;28;20461;-66
2022/07/23 06:24:44;;;;;;;5.00;1.70;;;;;;;16.90;100.00;101212.78;5072044;28;20552;-67
2022/07/23 06:27:10;;;;;;;3.67;1.60;;;;;;;16.96;100.00;101218.09;5071986;28;20453;-68
2022/07/23 06:29:37;;;;;;;4.80;1.57;;;;;;;17.01;100.00;101217.91;5072032;28;20500;-68
2022/07/23 06:32:06;;;;;;;8.63;2.70;;;;;;;17.06;100.00;101210.31;5071025;28;20548;-68
2022/07/23 06:34:32;;;;;;;3.83;1.57;;;;;;;17.10;100.00;101214.00;5071611;28;20552;-68
2022/07/23 06:36:59;;;;;;;5.03;2.17;;;;;;;17.09;100.00;101208.88;5070915;28;20564;-68
2022/07/23 06:39:26;;;;;;;7.43;2.10;;;;;;;17.12;100.00;101216.41;5072403;28;20543;-68
2022/07/23 06:41:52;;;;;;;5.70;2.17;;;;;;;17.07;100.00;101227.53;5072598;28;20537;-69
2022/07/23 06:44:19;;;;;;;7.37;2.10;;;;;;;17.02;100.00;101227.72;5071908;28;20547;-68
2022/07/23 06:46:46;;;;;;;6.80;2.07;;;;;;;16.98;100.00;101208.41;5071153;28;20536;-67
2022/07/23 06:49:14;;;;;;;4.20;1.70;;;;;;;17.01;100.00;101212.44;5072256;28;20567;-68
2022/07/23 06:51:40;;;;;;;5.40;2.23;;;;;;;16.97;100.00;101201.34;5071956;28;20488;-67
2022/07/23 06:54:07;;;;;;;5.07;1.50;;;;;;;16.87;100.00;101202.53;5071821;28;20532;-68
2022/07/23 06:56:34;;;;;;;4.77;2.00;;;;;;;16.87;100.00;101205.25;5070906;28;20496;-67
2022/07/23 06:59:00;;;;;;;7.90;2.20;;;;;;;16.93;100.00;101194.13;5071353;28;20477;-68
2022/07/23 07:01:27;;;;;;;11.30;2.33;;;;;;;16.97;100.00;101195.06;5071491;28;20536;-68
2022/07/23 07:03:53;;;;;;;4.20;1.80;;;;;;;17.08;100.00;101194.34;5071312;28;20540;-68
2022/07/23 07:06:21;;;;;;;4.20;2.23;;;;;;;17.13;100.00;101193.38;5071750;28;20544;-70
2022/07/23 07:08:48;;;;;;;5.13;2.87;;;;;;;17.05;100.00;101207.91;5072765;28;20897;-70
2022/07/23 07:11:15;;;;;;;3.90;1.87;;;;;;;16.99;100.00;101214.69;5072089;28;20902;-70
2022/07/23 07:13:41;;;;;;;5.77;2.40;;;;;;;17.09;100.00;101230.78;5071135;28;20457;-69
2022/07/23 07:16:08;;;;;;;4.60;2.03;;;;;;;17.18;100.00;101239.75;5072403;28;20577;-71
2022/07/23 07:18:35;;;;;;;3.40;1.70;;;;;;;17.21;100.00;101246.47;5075449;28;20520;-70
2022/07/23 07:21:01;;;;;;;6.30;3.00;;;;;;;17.24;100.00;101245.81;5075500;28;20974;-68
2022/07/23 07:23:29;;;;;;;4.60;2.33;;;;;;;17.22;100.00;101237.13;5074445;28;20457;-69
2022/07/23 07:25:56;;;;;;;6.13;2.87;;;;;;;17.36;100.00;101241.25;5075353;28;20498;-69
2022/07/23 07:28:23;;;;;;;4.93;2.43;;;;;;;17.48;100.00;101240.53;5075027;28;20576;-70
2022/07/23 07:30:49;;;;;;;7.33;2.83;;;;;;;17.54;100.00;101247.44;5075214;28;20924;-70
2022/07/23 07:33:16;;;;;;;4.40;2.50;;;;;;;17.65;100.00;101250.56;5076249;28;20472;-69
2022/07/23 07:35:42;;;;;;;7.70;3.20;;;;;;;17.74;100.00;101247.81;5075466;28;20572;-68
2022/07/23 07:38:09;;;;;;;3.90;2.27;;;;;;;17.78;100.00;101238.59;5074750;28;20560;-66
2022/07/23 07:40:37;;;;;;;4.63;2.50;;;;;;;17.87;100.00;101238.53;5074062;28;20548;-68
2022/07/23 07:43:04;;;;;;;5.77;2.37;;;;;;;17.89;100.00;101239.00;5072447;28;20956;-70
2022/07/23 07:45:30;;;;;;;4.83;2.50;;;;;;;17.95;100.00;101234.13;5075963;28;20437;-69
2022/07/23 07:47:57;;;;;;;5.77;2.23;;;;;;;17.98;100.00;101238.94;5074159;28;20508;-69
2022/07/23 07:50:24;;;;;;;3.97;2.50;;;;;;;17.97;100.00;101229.88;5073185;28;20461;-70
2022/07/23 07:52:50;;;;;;;4.30;1.67;;;;;;;18.05;100.00;101217.25;5074659;28;20469;-69
2022/07/23 07:55:17;;;;;;;7.10;2.57;;;;;;;18.14;100.00;101215.25;5074820;28;20557;-69
2022/07/23 07:57:45;;;;;;;3.47;1.80;;;;;;;18.19;100.00;101215.03;5074945;28;20521;-69
2022/07/23 08:00:12;;;;;;;10.63;2.17;;;;;;;18.27;100.00;101216.88;5075366;28;20931;-68
2022/07/23 08:02:43;;;;;;;3.40;1.70;;;;;;;18.19;99.68;101223.25;5075654;28;20445;-68
2022/07/23 08:05:10;;;;;;;6.23;2.80;;;;;;;18.06;97.44;101224.34;5074394;28;21198;-69
2022/07/23 08:07:39;;;;;;;5.00;1.93;;;;;;;18.05;98.76;101217.25;5075275;28;20966;-68
2022/07/23 08:10:06;;;;;;;4.27;2.17;;;;;;;18.10;100.00;101226.06;5074729;28;20826;-70
2022/07/23 08:12:40;;;;;;;5.70;2.40;;;;;;;18.04;99.43;101221.13;5075521;28;20540;-69
2022/07/23 08:15:10;;;;;;;7.90;2.20;;;;;;;18.15;99.37;101225.09;5074627;28;20448;-70
2022/07/23 08:17:36;;;;;;;6.13;1.70;;;;;;;18.21;99.98;101223.72;5074720;28;20493;-68
2022/07/23 08:20:04;;;;;;;4.17;1.87;;;;;;;18.24;99.00;101220.31;5074574;28;20532;-70
2022/07/23 08:22:43;;;;;;;3.97;1.90;;;;;;;18.23;97.10;101218.69;5075650;28;20445;-69
2022/07/23 08:25:10;;;;;;;13.90;2.87;;;;;;;18.32;97.87;101224.91;5074255;28;20575;-70
2022/07/23 08:27:37;;;;;;;3.00;1.40;;;;;;;18.42;99.14;101226.44;5074471;28;20465;-69
2022/07/23 08:30:05;;;;;;;4.70;2.17;;;;;;;18.34;94.63;101224.59;5073819;28;20532;-70
2022/07/23 08:32:33;;;;;;;3.80;1.83;;;;;;;18.39;94.57;101230.66;5075120;28;20524;-68
2022/07/23 08:34:59;;;;;;;3.70;1.93;;;;;;;18.45;94.06;101242.19;5073749;28;20473;-70
2022/07/23 08:37:26;;;;;;;4.10;2.03;;;;;;;18.50;94.23;101224.72;5073791;28;20873;-69
2022/07/23 08:39:52;;;;;;;9.27;2.13;;;;;;;18.46;92.88;101221.06;5075132;28;20532;-66
2022/07/23 08:42:20;;;;;;;3.80;1.50;;;;;;;18.44;93.50;101212.38;5074651;28;20539;-68
2022/07/23 08:44:47;;;;;;;3.00;1.60;;;;;;;18.61;94.51;101210.25;5072544;28;20845;-67
2022/07/23 08:47:15;;;;;;;3.63;1.57;;;;;;;18.61;92.49;101212.19;5074894;28;20549;-68
2022/07/23 08:49:45;;;;;;;4.27;1.90;;;;;;;18.78;91.85;101208.47;5074496;28;20453;-67
2022/07/23 08:52:12;;;;;;;4.63;2.00;;;;;;;18.97;92.94;101205.16;5074344;28;20532;-68
2022/07/23 08:54:39;;;;;;;3.00;1.20;;;;;;;19.21;92.88;101205.16;5073588;28;20552;-68
2022/07/23 08:57:05;;;;;;;3.47;1.37;;;;;;;19.45;93.59;101200.81;5074111;28;20576;-68
2022/07/23 08:59:32;;;;;;;2.70;1.30;;;;;;;19.39;87.98;101209.28;5073604;28;20552;-68
2022/07/23 09:02:00;;;;;;;7.17;2.47;;;;;;;19.28;84.59;101213.63;5074028;28;20461;-68
2022/07/23 09:04:27;;;;;;;4.07;1.47;;;;;;;19.25;85.88;101217.06;5073390;28;20466;-67
2022/07/23 09:06:56;;;;;;;3.90;1.90;;;;;;;19.19;85.57;101214.91;5073587;28;20493;-67
2022/07/23 09:09:23;;;;;;;3.30;1.33;;;;;;;19.20;88.17;101217.28;5074035;28;20536;-68
2022/07/23 09:12:03;;;;;;;2.30;0.80;;;;;;;19.24;92.30;101234.69;5074741;28;20456;-68
2022/07/23 09:14:41;;;;;;;3.83;1.60;;;;;;;19.29;93.05;101234.44;5073329;28;20468;-69
2022/07/23 09:17:12;;;;;;;4.30;2.00;;;;;;;19.38;90.03;101243.38;5073945;28;20556;-69
2022/07/23 09:19:39;;;;;;;3.90;1.93;;;;;;;19.52;87.97;101242.22;5073260;28;20543;-69
2022/07/23 09:22:21;;;;;;;6.63;2.30;;;;;;;19.72;86.47;101235.81;5073820;28;20656;-69
2022/07/23 09:25:05;;;;;;;4.03;1.67;;;;;;;19.91;83.81;101232.44;5072610;28;20898;-69
2022/07/23 09:27:47;;;;;;;3.70;1.70;;;;;;;20.04;83.06;101241.44;5073126;28;20449;-69
2022/07/23 09:30:14;;;;;;;3.87;1.80;;;;;;;19.83;84.44;101245.19;5054154;28;20853;-68
2022/07/23 09:32:41;;;;;;;5.33;2.53;;;;;;;19.87;83.19;101248.81;5055926;28;20903;-68
2022/07/23 09:35:08;;;;;;;2.90;1.50;;;;;;;19.98;82.84;101256.59;5073839;28;20524;-69
2022/07/23 09:37:36;;;;;;;3.77;1.80;;;;;;;20.02;84.31;101257.50;5072365;28;20568;-69
2022/07/23 09:40:08;;;;;;;3.80;1.70;;;;;;;20.24;83.08;101258.94;5073556;28;20449;-68
2022/07/23 09:42:35;;;;;;;3.60;2.17;;;;;;;20.39;76.53;101263.66;5072621;28;21010;-70
2022/07/23 09:45:03;;;;;;;4.17;2.30;;;;;;;20.47;78.11;101259.16;5073720;28;20540;-69
2022/07/23 09:47:32;;;;;;;3.10;1.60;;;;;;;20.70;79.35;101260.22;5073084;28;20909;-68
2022/07/23 09:50:00;;;;;;;7.03;1.67;;;;;;;20.76;76.89;101256.06;5072827;28;20461;-68
2022/07/23 09:52:28;;;;;;;3.30;1.70;;;;;;;20.86;77.02;101258.28;5071463;28;20551;-69
2022/07/23 09:55:01;;;;;;;8.83;2.20;;;;;;;21.01;74.63;101248.41;5053937;28;20529;-69
2022/07/23 09:57:28;;;;;;;5.20;2.00;;;;;;;20.88;75.69;101250.44;5072673;28;20495;-69
2022/07/23 09:59:58;;;;;;;5.90;1.80;;;;;;;20.80;76.05;101258.88;5072759;28;20449;-68
2022/07/23 10:02:26;;;;;;;3.53;1.50;;;;;;;20.92;73.88;101262.34;5071981;28;20460;-69
2022/07/23 10:04:54;;;;;;;3.20;1.80;;;;;;;21.02;73.92;101261.03;5073455;28;20473;-68
2022/07/23 10:07:23;;;;;;;4.33;2.23;;;;;;;21.06;73.78;101261.13;5072847;28;20507;-68
2022/07/23 10:09:52;;;;;;;6.03;2.60;;;;;;;21.11;72.01;101256.13;5073539;28;20445;-69
2022/07/23 10:12:38;;;;;;;3.73;1.50;;;;;;;21.02;74.50;101266.53;5072015;28;20493;-69
2022/07/23 10:15:05;;;;;;;3.73;1.70;;;;;;;20.99;69.96;101264.50;5073206;28;20805;-68
2022/07/23 10:17:32;;;;;;;3.63;1.70;;;;;;;21.08;74.40;101262.38;5070497;28;20911;-69
2022/07/23 10:19:59;;;;;;;3.23;1.40;;;;;;;21.30;76.76;101260.94;5073296;28;20441;-68
2022/07/23 10:22:28;;;;;;;6.63;1.60;;;;;;;21.43;72.54;101258.91;5072668;28;20558;-68
2022/07/23 10:25:12;;;;;;;3.20;1.70;;;;;;;21.60;71.69;101257.69;5072116;28;20549;-69
2022/07/23 10:27:52;;;;;;;3.50;1.60;;;;;;;21.72;70.84;101263.09;5071979;28;20500;-68
2022/07/23 10:30:23;;;;;;;2.90;1.20;;;;;;;21.46;67.72;101266.44;5072587;28;20429;-69
2022/07/23 10:33:00;;;;;;;3.93;2.00;;;;;;;21.56;71.05;101267.84;5073107;28;20509;-69
2022/07/23 10:35:32;;;;;;;4.03;1.93;;;;;;;21.66;66.11;101267.31;5071846;28;20528;-68
2022/07/23 10:38:08;;;;;;;7.17;1.60;;;;;;;21.66;67.26;101270.06;5072043;28;20517;-68
2022/07/23 10:40:35;;;;;;;8.70;2.60;;;;;;;21.64;67.26;101275.13;5072239;28;20452;-68
2022/07/23 10:43:16;;;;;;;3.37;1.67;;;;;;;21.72;67.67;101260.34;5073123;28;20441;-68
2022/07/23 10:45:43;;;;;;;3.20;1.50;;;;;;;21.75;68.62;101267.91;5072681;28;20453;-69
2022/07/23 10:48:15;;;;;;;4.50;1.67;;;;;;;21.92;70.62;101261.97;5072106;28;20944;-69
2022/07/23 10:50:43;;;;;;;4.57;2.10;;;;;;;22.20;66.83;101263.75;5071657;28;20510;-69
2022/07/23 10:53:13;;;;;;;3.23;1.37;;;;;;;22.46;67.30;101259.53;5076809;28;20445;-69
2022/07/23 10:55:43;;;;;;;3.60;1.70;;;;;;;22.62;65.36;101274.00;5074185;28;20457;-70
2022/07/23 10:58:11;;;;;;;3.50;1.83;;;;;;;22.90;64.81;101271.81;5071269;28;20492;-69
2022/07/23 11:00:39;;;;;;;4.33;1.60;;;;;;;22.89;61.93;101267.44;5077206;28;20441;-66
2022/07/23 11:03:26;;;;;;;5.40;1.87;;;;;;;23.08;64.10;101269.34;5075992;28;20544;-68
2022/07/23 11:05:53;;;;;;;3.73;1.73;;;;;;;23.00;65.05;101266.84;5075680;28;20543;-69
2022/07/23 11:08:20;;;;;;;3.47;1.20;;;;;;;23.19;65.77;101263.97;5076779;28;20462;-69
2022/07/23 11:10:53;;;;;;;4.17;1.97;;;;;;;23.22;64.79;101267.97;5075276;28;20468;-68
2022/07/23 11:13:45;;;;;;;6.20;1.80;;;;;;;23.17;62.76;101261.59;5073187;28;20457;-70
2022/07/23 11:16:22;;;;;;;6.17;1.67;;;;;;;23.01;62.52;101262.91;5063420;28;20492;-68
2022/07/23 11:19:08;;;;;;;3.90;1.73;;;;;;;23.09;58.09;101264.59;5074447;28;20484;-69
2022/07/23 11:21:48;;;;;;;4.53;1.90;;;;;;;22.84;59.77;101262.22;5074262;28;20504;-67
2022/07/23 11:24:20;;;;;;;3.60;1.30;;;;;;;23.14;62.04;101267.84;5073596;28;21373;-66